NOTICE: In January 2020, USGS WaterWatch began operating in maintenance-only mode. Existing tools, features, and web data services are being fully maintained as before, but new tools and enhancements will no longer be developed. Please click here for more information or contact USGS WaterWatch if you have any questions.
Choose a state:
Most recent flow and stage for Idaho
(Stations highlighted in red are currently above flood stage)
USGS
station
ID
USGS station name NWS
flood
stage
(ft)
Most recent
stage
(ft)
Most recent
flow
(cfs)
Historical
peaks
(cfs)
Most recent
local
date/time
NWS
station
ID
10039500 BEAR RIVER AT BORDER, WY 7.5 1.10 83.8 4,880 2020-09-19 11:30:00 BRBW4
10068500 BEAR RIVER AT PESCADERO, ID 6.2 3.84 541 4,280 2020-09-19 11:45:00 BRAI1
10092700 BEAR RIVER AT IDAHO-UTAH STATE LINE 18.1 9.75 543 4,870 2020-09-19 11:45:00 BIUI1
12305000 KOOTENAI RIVER AT LEONIA, ID   11.47 6,430 123,000 2020-09-19 10:15:00 LEOI1
12306500 MOYIE RIVER AT EASTPORT ID 9 3.32 33.9 9,400 2020-09-19 10:45:00 EASI1
12308000 KOOTENAI RIVER BEL MOYIE RIVER NR BONNERS FERRY ID   72.07 6,580   2020-09-19 10:15:00 KRMI1
12308500 KOOTENAI R AT CROSSPORT NR BONNERS FERRY, ID   61.62

 

  2020-09-19 10:00:00  
12309500 KOOTENAI RIVER AT BONNERS FERRY ID 64 45.80

 

130,000 2020-09-19 10:15:00 BFEI1
12310100 KOOTENAI RIVER @ TRIBAL HATCHERY NR BONNERS FERRY   48.94 6,780 61,100 2020-09-19 10:00:00  
12314000 KOOTENAI R AT KLOCKMANN RANCH NR BONNERS FERRY ID   44.49

 

  2020-09-19 10:30:00  
12318500 KOOTENAI RIVER NR COPELAND ID   44.21

 

124,000 2020-09-19 10:30:00  
12321500 BOUNDARY CREEK NR PORTHILL ID   9.25 7.52 4,080 2020-09-19 10:00:00  
12322000 KOOTENAI RIVER AT PORTHILL ID   43.80 7,640 125,000 2020-09-19 10:45:00 PORI1
12391950 CLARK FORK RIVER BELOW CABINET GORGE DAM ID   6.68 3,670 134,000 2020-09-19 10:45:00 CBBI1
12392155 LIGHTNING CREEK AT CLARK FORK ID   9.19 18.6 16,400 2020-09-19 10:45:00 LTCI1
12392300 PACK RIVER NR COLBURN ID   15.66 21.2 6,880 2020-09-19 10:30:00 PAKI1
12393000 PRIEST LAKE AT OUTLET NR COOLIN ID   3.07

 

  2020-09-19 10:30:00 PSLI1
12393501 PRIEST R OUTFLOW NR COOLIN, ID   14.24 246   2020-09-19 10:30:00  
12395000 Priest River near Priest River, ID   0.81 300 10,800 2020-09-19 10:15:00 PRTI1
12395500 PEND OREILLE RIVER AT NEWPORT WA   32.27 11,400 200,000 2020-09-19 10:45:00 ATGW1
12411000 NF COEUR D ALENE R AB SHOSHONE CK NR PRICHARD ID   1.03 101 22,000 2020-09-19 10:15:00 PRCI1
12413000 NF COEUR D ALENE RIVER AT ENAVILLE ID 72 56.99 240 61,000 2020-09-19 10:45:00 ENVI1
12413125 CANYON CREEK AB MOUTH AT WALLACE, ID   20.03 17.7 734 2020-09-19 10:45:00 CCRI1
12413130 NINEMILE CREEK AB MOUTH AT WALLACE, ID   12.42 3.23 350 2020-09-19 10:30:00 NMLI1
12413131 SF COEUR D ALENE R ABV PLACER CR AT WALLACE ID   12.25 45.8 1,720 2020-09-19 10:45:00 SFWI1
12413210 SF COEUR D ALENE AT ELIZABETH PARK NR KELLOGG ID   23.87 80.0 9,600 2020-09-19 10:45:00 SKGI1
12413355 SF COEUR D ALENE RIVER ABV PINE CR NR PINEHURST ID   88.25 98.9 6,000 2020-09-19 10:00:00 SFPI1
12413370 EF PINE CREEK ABV NABOB CR NEAR PINEHURST ID   1.99 6.21 953 2020-09-19 10:15:00 NPLI1
12413470 SF COEUR D ALENE RIVER NR PINEHURST ID   6.60 98.3 11,700 2020-09-19 10:00:00 PSTI1
12413500 COEUR D ALENE RIVER NR CATALDO ID 43 32.77 364 79,000 2020-09-19 10:30:00 CTLI1
12413860 COEUR D ALENE RIVER NR HARRISON ID   24.42 518 27,300 2020-09-19 10:30:00 HARI1
12413875 ST JOE RIVER AT RED IVES RANGER STATION, ID   1.49 79.7 4,800 2020-09-19 10:00:00 SJII1
12414500 ST JOE RIVER AT CALDER, ID 13 5.35 365 53,000 2020-09-19 10:30:00 CLDI1
12414900 ST MARIES RIVER NR SANTA, ID   3.88 47.9 12,300 2020-09-19 10:15:00 SATI1
12415070 ST JOE RIVER AT SAINT MARIES, ID 32.5 28.07

 

  2020-09-19 10:30:00 SJMI1
12415135 ST JOE RIVER AT RAMSDELL NR ST MARIES ID   28.10 464   2020-09-19 10:30:00 SJRI1
12415500 COEUR D ALENE LAKE AT COEUR D ALENE ID 2133 27.29

 

  2020-09-19 10:30:00 COEI1
12417650 SPOKANE RIVER BLW BLACKWELL NR COEUR D ALENE ID   28.10 1,320   2020-09-19 10:06:00 SRBI1
12419000 SPOKANE RIVER NR POST FALLS ID   6.87 1,210 50,100 2020-09-19 10:30:00 PTFI1
13010065 SNAKE RIVER AB JACKSON LAKE AT FLAGG RANCH WY 10 2.28 211 15,000 2020-09-19 11:30:00 FLGW4
13011000 SNAKE RIVER NR MORAN WY   4.14 962 15,100 2020-09-19 11:45:00 JLKW4
13011500 PACIFIC CREEK AT MORAN WY 8 4.09 49.2 5,790 2020-09-19 11:30:00 PACW4
13011900 BUFFALO FORK AB LAVA CREEK NR MORAN WY 8.5 1.02 200 6,540 2020-09-19 11:30:00 BFKW4
13015000 GROS VENTRE RIVER AT ZENITH WY   17.63 79.2 6,170 2020-09-19 11:15:00 GVZW4
13018750 SNAKE RIVER BL FLAT CREEK NR JACKSON WY 10 2.24 2,400 30,200 2020-09-19 11:30:00 JKSW4
13022500 SNAKE RIVER AB RESERVOIR NR ALPINE WY   3.75 2,640 38,600 2020-09-19 11:30:00 ALPW4
13023000 GREYS RIVER AB RESERVOIR NR ALPINE WY   1.59 381 7,230 2020-09-19 11:30:00 GREW4
13027500 SALT RIVER AB RESERVOIR NR ETNA WY 5.5 2.07 582 5,090 2020-09-19 11:30:00 SALW4
13032500 SNAKE RIVER NR IRWIN ID   7.39 6,930 40,400 2020-09-19 11:30:00 PALI1
13037500 SNAKE RIVER NR HEISE ID 8 4.04 7,580 60,000 2020-09-19 11:30:00 HEII1
13038000 DRY BED NR RIRIE ID   8.70 2,350   2020-09-19 11:45:00  
13038500 SNAKE RIVER AT LORENZO ID   5.08 3,540 43,000 2020-09-19 11:15:00 LORI1
13039000 HENRYS LAKE NR LAKE ID   14.93

 

  2020-09-19 11:30:00 HLKI1
13039500 HENRYS FORK NR LAKE ID   4.81 45.3 907 2020-09-19 11:45:00 HENI1
13042500 HENRYS FORK NR ISLAND PARK ID   3.58 290 3,030 2020-09-19 11:45:00 ISLI1
13046000 HENRYS FORK NR ASHTON ID   3.29 1,150 8,140 2020-09-19 11:15:00 HFAI1
13046995 FALL RIVER AB YELLOWSTONE CANAL NR SQUIRREL ID   5.62 543 6,930 2020-09-19 11:45:00 FAYI1
13047500 FALL RIVER NR SQUIRREL ID   0.72 223 7,060 2020-09-19 11:45:00 FALI1
13047600 FALL RIVER NR ASHTON ID   4.14 476 6,460 2020-09-19 11:45:00 FRAI1
13049500 FALL RIVER NR CHESTER ID 6.5 2.05 324 9,310 2020-09-19 11:15:00 CHEI1
13050500 HENRYS FORK AT ST ANTHONY ID 7 3.26 910 14,000 2020-09-19 11:45:00 ANTI1
13052200 TETON RIVER AB SOUTH LEIGH CREEK NR DRIGGS ID 4.2 1.51 235 2,980 2020-09-19 11:30:00 DGGI1
13055000 TETON RIVER NR ST ANTHONY ID 6 2.28 505 1,700,000 2020-09-19 11:15:00 TEAI1
13055250 NF TETON RIVER NR SUGAR CITY ID   4.00 58.3 1,880 2020-09-19 11:30:00 NFTI1
13055340 SF TETON RIVER NEAR REXBURG ID   4.73 80.5 3,410 2020-09-19 11:15:00 TTXI1
13056500 HENRYS FORK NR REXBURG ID 9.5 3.33 909 79,000 2020-09-19 11:15:00 REXI1
13057000 SNAKE RIVER NR MENAN ID 8.5 3.45 4,660 30,400 2020-09-19 11:30:00 MENI1
13057132 GREAT WESTERN SPILLBACK NR IDAHO FALLS ID   1.99 177   2020-09-19 11:30:00  
13057155 SNAKE RIVER AB EAGLE ROCK NR IDAHO FALLS ID 13.2 6.80 4,260 48,600 2020-09-19 11:15:00 SIFI1
13057300 GRAYS LAKE DIV TO BLACKFOOT R BASIN NR WAYAN, ID   2.53 0.06   2020-09-19 11:15:00 GLBI1
13057500 GRAYS LAKE OUTLET NR HERMAN ID   1.90 0.70   2020-09-19 11:00:00  
13057940 WILLOW CREEK BL TEX CREEK NR RIRIE ID 5.3 2.29 25.5 2,900 2020-09-19 11:45:00 WTXI1
13058000 WILLOW CREEK NR RIRIE ID 12.1 5.07 354 5,080 2020-09-19 11:30:00 RIRI1
13058510 SAND CREEK NEAR UCON ID   3.05 325   2020-09-19 11:30:00  
13058520 WILLOW CREEK FLOODWAY CHANNEL NR UCON ID   5.65 386   2020-09-19 11:30:00  
13058529 WILLOW CR FLOODWAY CHANNEL AT MOUTH NR ID FALLS ID   13.12 396   2020-09-19 11:30:00  
13058530 WILLOW CREEK BLW FLOODWAY CHANNEL NR UCON ID   4.38 124   2020-09-19 11:30:00  
13060000 SNAKE RIVER NR SHELLEY ID 12.5 6.37 4,310 75,000 2020-09-19 11:15:00 SHYI1
13062500 SNAKE RIVER AT BLACKFOOT ID 10.5 4.51 1,990 43,200 2020-09-19 11:15:00 SNAI1
13063000 BLACKFOOT RIVER AB RESERVOIR NR HENRY ID 5.5 1.89 53.3 2,150 2020-09-19 11:45:00 BKHI1
13065500 BLACKFOOT RIVER NR HENRY ID   1.95 233 1,640 2020-09-19 11:45:00  
13066000 BLACKFOOT RIVER NR SHELLEY ID 8.5 6.06 276 3,220 2020-09-19 11:30:00 SHLI1
13068300 BLACKFOOT RIVER BELOW NORTH CANAL AT BLACKFOOT ID   2.21 28.9   2020-09-19 11:45:00  
13068495 BLACKFOOT RIVER BYPASS NR BLACKFOOT ID   3.67 0.00   2020-09-19 11:30:00  
13068500 BLACKFOOT RIVER NR BLACKFOOT ID 5.8 2.14 48.6   2020-09-19 11:30:00 BLFI1
13069500 SNAKE RIVER NR BLACKFOOT ID 11 2.65 1,890 53,500 2020-09-19 11:15:00 BFTI1
13073000 PORTNEUF RIVER AT TOPAZ ID 4 2.63 162 7,120 2020-09-19 11:15:00 TOPI1
13075000 MARSH CREEK NR MCCAMMON ID 5.5 2.73 48.1 1,120 2020-09-19 11:45:00 MCCI1
13075500 PORTNEUF RIVER AT POCATELLO ID 8.5 2.82 71.2 2,990 2020-09-19 11:45:00 PIHI1
13075910 PORTNEUF RIVER NR TYHEE ID 6.2 4.11 193 1,740 2020-09-19 11:30:00 PTYI1
13075983 SPRING CREEK AT SHEEPSKIN RD NR FORT HALL ID   4.59 298 605 2020-09-19 11:15:00 SPSI1
13077000 SNAKE RIVER AT NEELEY ID 9.5 5.36 7,330 48,400 2020-09-19 11:30:00 AMFI1
13078000 RAFT RIVER AB ONEMILE CREEK NR MALTA ID 6.5 4.30 10.7 2,060 2020-09-19 11:15:00 RRVI1
13081500 SNAKE R NR MINIDOKA ID (AT HOWELLS FERRY) 11.5 6.84 7,410 47,500 2020-09-19 11:30:00 MDMI1
13082500 GOOSE CREEK AB TRAPPER CREEK NR OAKLEY ID 5.5 1.20 3.13 3,550 2020-09-19 11:30:00 GOSI1
13083000 TRAPPER CREEK NR OAKLEY ID   4.83 10.1 292 2020-09-19 11:30:00 TCOI1
13087900 MILNER LAKE AT MILNER DAM ID   10.90

 

  2020-09-19 11:45:00  
13087995 SNAKE RIVER GAGING STATION AT MILNER ID   0.70 0.00   2020-09-19 11:30:00 MILI1
13089500 DEVILS WASHBOWL SPRING NR KIMBERLY 10S 18E 04AAD1S   1.59 12.6   2020-09-19 11:30:00 DWSI1
13090500 SNAKE RIVER NR TWIN FALLS ID   3.27 1,580 40,000 2020-09-19 11:30:00 STFI1
13092747 ROCK CREEK AB HWY 30/93 XING AT TWIN FALLS ID   6.63 152 623 2020-09-19 11:30:00 TFAI1
13093383 SNAKE RIVER AT PIGEON COVE NR TWIN FALLS, ID   97.62 2,710   2020-09-19 11:00:00  
13093384 SNAKE RIVER BLW PIGEON COVE NR TWIN FALLS, ID   85.86

 

  2020-09-19 11:30:00  
13093397 Snake R nr State Hatchery   91.53

 

  2020-08-24 13:36:00  
13093670 Snake R blw Cedar Draw   95.69

 

  2020-09-19 11:45:00  
13094000 SNAKE RIVER NR BUHL ID   3.16 3,610 37,100 2020-09-19 11:45:00 BUHI1
13095175 BRIGGS SPRING AT HEAD NEAR BUHL ID   4.06 100   2020-09-19 11:30:00 BSPI1
13095500 BOX CANYON SPRINGS NR WENDELL ID   1.34 324   2020-09-19 11:15:00 BXCI1
13105000 SALMON FALLS CREEK NR SAN JACINTO NV 10 5.32 31.1 4,040 2020-09-19 10:45:00 SFLN2
13106500 SALMON RIVER CANAL CO RES NR ROGERSON ID   27.02

 

2020-09-19 11:00:00 SFRI1
13108150 SALMON FALLS CREEK NR HAGERMAN ID   5.03 211 7,500 2020-09-19 11:30:00 HAGI1
13112000 CAMAS CREEK AT CAMAS ID 9.2 2.40 0.00 1,500 2020-09-19 11:30:00 CCCI1
13115000 MUD LAKE NR TERRETON ID   3.64

 

  2020-09-19 11:30:00 MUDI1
13116500 MEDICINE LODGE CREEK NR SMALL ID 7.7 4.75 27.6 481 2020-09-19 11:15:00 MEDI1
13118700 LITTLE LOST RIVER BL WET CREEK NR HOWE ID 3.4 0.99 27.9 509 2020-09-19 11:30:00 LLRI1
13118975 LITTLE LOST RIVER AB FLOOD DIVERSION NR HOWE ID   6.08 35.3 314 2020-09-19 11:15:00  
13119000 LITTLE LOST RIVER NR HOWE, ID 4.5 2.64 31.1 450 2020-09-19 11:15:00 LLHI1
13120000 NF BIG LOST RIVER AT WILD HORSE NR CHILLY ID 5.1 1.42 28.6 2,170 2020-09-19 11:15:00 BLRI1
13120500 BIG LOST RIVER AT HOWELL RANCH NR CHILLY ID 4 0.98 89.0 5,010 2020-09-19 11:00:00 HWRI1
13122000 THOUSAND SPRINGS CREEK NR CHILLY ID   6.43 6.72   2020-09-19 11:15:00  
13124265 WARM SPRINGS CREEK BELOW DIVERSION NR MACKAY ID   9.19 36.5   2020-09-19 11:30:00  
13126000 MACKAY RES NR MACKAY ID   30.35

 

  2020-09-19 11:15:00 MACI1
13127000 BIG LOST RIVER BL MACKAY RES NR MACKAY ID 4.3 2.15 263 2,990 2020-09-19 11:45:00 MAKI1
13128900 LOWER CEDAR CREEK AB DIVS NR MACKAY ID   9.87 6.31 310 2020-09-19 11:30:00  
13131000 ANTELOPE CREEK NR DARLINGTON, ID 6 4.22 13.7 833 2020-09-19 11:00:00 ACKI1
13132100 BIG LOST RIVER BELOW MOORE DIV NR MOORE ID   9.40 0.00   2020-09-19 10:45:00  
13132373 BIG LOST RIVER AT ARCO AT SUNSET ROAD ID   -3.30 Eqp   2020-09-19 11:45:00  
13132500 BIG LOST RIVER NR ARCO ID 6.5 2.02 0.00 2,500 2020-09-19 11:15:00 ARCI1
13132513 INL DIVERSION AT HEAD NEAR ARCO ID   47.96 Ssn   2020-09-19 11:45:00 INEI1
13132520 BIG LOST RIVER BL INL DIV NEAR ARCO ID   41.36 Ssn   2020-09-19 11:45:00 BLOI1
13132535 BIG LOST R AT LINCOLN BLVD BRIDGE NR ATOMIC CITY 14.8 12.80 Ssn   2020-09-19 11:45:00 LINI1
13132565 BIG LOST RIVER AB BIG LOST RIVER SINKS NR HOWE ID   3.56 Ssn   2020-09-19 11:45:00 BLSI1
13135500 BIG WOOD RIVER NR KETCHUM ID 8 4.84 43.6 3,940 2020-09-19 11:00:00 BWKI1
13135520 NF BIG WOOD RIVER NR SAWTOOTH NRA HQ NR KETCHUM ID 7.3 4.96 21.8 1,270 2020-09-19 11:30:00 NFBI1
13136550 WARM SPRINGS CR AT GATES RD NR KETCHUM, ID   9.44 23.2   2020-09-19 11:00:00  
13137000 WARM SPRINGS CREEK NEAR KETCHUM ID 12.2 9.33 31.0 1,660 2020-09-19 11:30:00 WRMI1
13137300 TRAIL CREEK NR SUN VALLEY, ID   3.89 13.6 801 2020-09-19 11:30:00  
13137500 TRAIL CREEK AT KETCHUM ID 7 4.73 2.10 750 2020-09-19 11:15:00 TCKI1
13138000 EAST FORK BIG WOOD RIVER AT GIMLET ID 7.9 4.71 5.15 822 2020-09-19 11:15:00 EFGI1
13139510 BIG WOOD RIVER AT HAILEY ID TOTAL FLOW 5 1.22 104 7,880 2020-09-19 10:45:00 HALI1
13140335 BIG WOOD R AT S BROADFORD BRIDGE NR BELLEVUE, ID   5.76 45.2 2020-09-19 11:30:00 BWBI1
13140800 BIG WOOD RIVER AT STANTON CROSSING NR BELLEVUE ID 12 4.05 12.8 5,450 2020-09-19 11:45:00 SCBI1
13141500 CAMAS CREEK NR BLAINE ID   1.91 1.80 9,780 2020-09-19 11:45:00 CMCI1
13142500 BIG WOOD RIVER BL MAGIC DAM NR RICHFIELD ID 9 1.81 4.22 10,000 2020-09-19 11:15:00 BWMI1
13147900 LITTLE WOOD RIVER AB HIGH FIVE CREEK NR CAREY ID 5.4 1.44 22.7 2,560 2020-09-19 11:45:00 LWOI1
13148500 LITTLE WOOD RIVER NR CAREY ID 5.8 1.74 60.8 20,000 2020-09-19 11:45:00 WODI1
13150430 SILVER CREEK AT SPORTSMAN ACCESS NR PICABO ID 8.3 6.79 66.1 572 2020-09-19 11:45:00 PBOI1
13152500 MALAD RIVER NR GOODING ID   3.04 304 8,860 2020-09-19 11:15:00 MLDI1
13154500 SNAKE RIVER AT KING HILL ID   7.77 9,930 47,200 2020-09-19 11:45:00 SKHI1
13159800 CANYON CR AT OREGON TRAIL XING NR MOUNTAIN HOME ID   1.66 0.56 1,420 2020-09-19 11:15:00 CCXI1
13168500 BRUNEAU RIVER NR HOT SPRING ID 9.5 4.52 41.5 6,860 2020-09-19 11:00:00 HOTI1
13171500 CJ STRIKE RES NR GRAND VIEW ID   54.79

 

  2020-09-19 11:15:00 CJSI1
13172500 SNAKE RIVER NR MURPHY ID   22.78 8,660 47,300 2020-09-19 11:17:00 SWAI1
13176400 EF OWYHEE RIVER AT CRUTCHER CROSSING, ID   8.19 21.5 10,800 2020-09-19 11:00:00 ORCI1
13185000 BOISE RIVER NR TWIN SPRINGS ID   5.55 392 22,700 2020-09-19 11:30:00 BTSI1
13186000 SF BOISE RIVER NR FEATHERVILLE ID 7.2 1.41 174 10,900 2020-09-19 11:30:00 BRFI1
13190500 SF BOISE RIVER AT ANDERSON RANCH DAM ID   3.03 308 9,850 2020-09-19 11:15:00 ANDI1
13200000 MORES CREEK AB ROBIE CREEK NR ARROWROCK DAM ID 8.8 1.77 24.0 5,440 2020-09-19 11:30:00 MORI1
13201500 LUCKY PEAK LAKE NR BOISE ID   2996.58

 

  2020-09-19 11:15:00 LUCI1
13204640 COTTONWOOD CREEK BEL FIVEMILE CR NR BOISE ID   7.86 1.12 74.0 2020-07-01 16:30:00 COTI1
13206000 BOISE RIVER AT GLENWOOD BRIDGE NR BOISE ID 10.1 4.18 450 13,000 2020-09-19 11:45:00 BIGI1
13206305 BOISE RIVER SOUTH CHANNEL AT EAGLE ID   3.01 302 4,140 2020-09-19 11:30:00 BSCI1
13206400 EAGLE DRAIN AT EAGLE, ID   11.20 26.6 77.3 2020-09-19 11:00:00  
13210810 FIFTEENMILE CREEK NR MIDLAND BLVD NR MIDDLETON, ID   1.06 58.5 338 2020-09-19 11:15:00  
13210824 N MIDDLETON DRAIN (MILL SLOUGH) AT MIDDLETON ID   5.36 42.2 97.5 2020-09-19 10:45:00  
13210831 SOUTH MIDDLETON DRAIN AT MIDDLETON ID   1.50 96.5 165 2020-09-19 11:15:00  
13210980 MASON CREEK AT CALDWELL ID   6.02 118 238 2020-09-19 11:30:00  
13210986 W HARTLEY GULCH NR CALDWELL ID   2.11 27.0 46.6 2020-09-19 11:00:00  
132109867 EAST HARTLEY ABV BACKWATER NR CALDWELL, ID   5.22 52.3 106 2020-09-19 11:45:00  
13211205 BOISE RIVER AT CALDWELL, ID   6.55 592 9,490 2020-09-19 11:15:00 CDWI1
13212549 CONWAY GULCH BELOW 1ST ST AT NOTUS, ID   6.25 30.1 96.2 2020-09-19 10:45:00  
13212890 DIXIE DRAIN NR WILDER ID   2.19 256 467 2020-09-19 11:00:00  
13213000 BOISE RIVER NR PARMA ID   8.63 881 9,400 2020-09-19 11:30:00 PARI1
13213072 SAND RUN GULCH NR PARMA ID   4.57 112 766 2020-09-19 11:30:00  
13213100 SNAKE RIVER AT NYSSA OR   6.40 9,610 57,900 2020-09-19 11:30:00 SNYI1
13235000 SOUTH FORK PAYETTE RIVER AT LOWMAN, ID 7.5 3.33 367 8,980 2020-09-19 11:30:00 PRLI1
13236500 DEADWOOD RIVER BL DEADWOOD RES NR LOWMAN ID   2.14 53.9 2,580 2020-09-19 11:45:00 DRBI1
13237920 MIDDLE FORK PAYETTE RIVER NR CROUCH ID 11.8 5.51 102 4,880 2020-09-19 11:15:00 MFPI1
13238500 PAYETTE LAKE AT MCCALL ID   5.08

 

2020-09-19 11:15:00  
13239000 NF PAYETTE RIVER AT MCCALL ID   3.12 317 4,980 2020-09-19 11:30:00 PAYI1
13240000 LAKE FORK PAYETTE RIVER AB JUMBO CR NR MCCALL ID   3.27 12.6 18,000 2020-09-19 11:30:00 LFPI1
13246000 NF PAYETTE RIVER NR BANKS ID   5.97 1,020 8,830 2020-09-19 11:00:00 BNKI1
13247500 PAYETTE RIVER NR HORSESHOE BEND ID   4.12 1,640 27,000 2020-09-19 11:30:00 HRSI1
13249500 PAYETTE RIVER NR EMMETT ID 10.5 2.19 942 32,700 2020-09-19 11:00:00 EMMI1
13250000 PAYETTE RIVER NR LETHA ID   7.79 516 27,000 2020-09-19 11:30:00 PLEI1
13251000 PAYETTE RIVER NR PAYETTE ID 12 4.55 930 32,000 2020-09-19 11:30:00 PRPI1
13258500 WEISER RIVER NR CAMBRIDGE ID 12 2.39 46.3 22,800 2020-09-19 11:00:00 CAMI1
13265500 CRANE CREEK AT MOUTH NR WEISER ID   2.22 56.7 4,800 2020-09-19 11:00:00 CRWI1
13266000 WEISER RIVER NR WEISER ID 9.5 4.09 167 34,500 2020-09-19 11:00:00 WSRI1
13269000 SNAKE RIVER AT WEISER ID 12 3.64 11,000 120,000 2020-09-19 11:00:00 WEII1
13290450 SNAKE RIVER AT HELLS CANYON DAM ID-OR STATE LINE   65.84 11,300 103,000 2020-09-19 10:30:00 HCDI1
13295000 VALLEY CREEK AT STANLEY ID 3.1 0.92 119 2,210 2020-09-19 11:00:00 VCSI1
13296000 YANKEE FORK SALMON RIVER NR CLAYTON ID 11 6.21 67.1 4,900 2020-09-19 11:15:00 YFSI1
13296500 SALMON RIVER BL YANKEE FORK NR CLAYTON ID 9.5 2.16 429 10,500 2020-09-19 11:45:00 SRYI1
13297330 THOMPSON CREEK NR CLAYTON ID   3.09 2.99 442 2020-09-19 11:45:00 TOMI1
13297350 BRUNO CREEK NR CLAYTON ID   2.57 0.20 42.0 2020-09-01 12:15:00  
13297355 SQUAW CREEK BL BRUNO CREEK NR CLAYTON ID 6.2 3.30 8.67 900 2020-09-19 11:30:00 SQUI1
13302005 PAHSIMEROI RIVER AT ELLIS ID   1.31 177 710 2020-09-19 11:00:00 PAHI1
13302500 SALMON RIVER AT SALMON ID 7.5 1.81 767 17,700 2020-09-19 11:00:00 SMNI1
13305000 LEMHI RIVER NR LEMHI ID 6.5 3.41 80.4 2,430 2020-09-19 11:00:00 LERI1
13305310 LEMHI RIVER BELOW L5 DIVERSION NEAR SALMON, ID   1.04 28.8 2,920 2020-09-19 11:30:00  
13306370 PANTHER CREEK AT COBALT, ID   4.53 44.6 1,470 2020-09-19 11:45:00  
13306385 NAPIAS CREEK BELOW ARNETT CREEK NEAR LEESBURG, ID   5.45 12.4 1,020 2020-09-19 11:00:00  
13307000 SALMON RIVER NR SHOUP ID   2.02 1,230 25,700 2020-09-19 11:30:00  
13309220 MF SALMON RIVER AT MF LODGE NR YELLOW PINE ID   1.67 648 20,900 2020-09-19 11:45:00 MIDI1
13310199 MF SALMON RIVER AT MOUTH NR SHOUP, ID   31.27 1,190 29,300 2020-09-19 11:45:00  
13310700 SF SALMON RIVER NR KRASSEL RANGER STATION ID   1.69 123 9,710 2020-09-19 11:45:00 KRSI1
13310800 EFSF SALMON R ABV MEADOW CRK NR STIBNITE, ID   14.82 6.60 163 2020-09-09 12:15:00  
13310850 MEADOW CREEK NR STIBNITE, ID   3.32 2.63 169 2020-09-08 19:30:00  
13311000 EF OF SF SALMON RIVER AT STIBNITE, ID   4.86 9.72 430 2020-09-19 11:00:00 SFSI1
13311250 EFSF SALMON R ABV SUGAR CRK NR STIBNITE, ID   10.35 12.3 527 2020-09-19 11:15:00  
13311450 SUGAR CREEK NR STIBNITE, ID   6.88 9.47 375 2020-09-19 11:15:00 SUGI1
13313000 JOHNSON CREEK AT YELLOW PINE ID   2.04 76.7 6,250 2020-09-19 11:00:00 JOHI1
13316500 LITTLE SALMON RIVER AT RIGGINS ID 10 2.61 208 12,600 2020-09-19 11:00:00 RIGI1
13317000 SALMON RIVER AT WHITE BIRD ID 32 12.46 3,880 130,000 2020-09-19 10:45:00 WHBI1
13317660 SNAKE RIVER BL MCDUFF RAPIDS AT CHINA GARDENS, ID   5.54 14,500 148,000 2020-09-19 10:45:00 SNMI1
13336500 SELWAY RIVER NR LOWELL ID 14 3.15 667 48,900 2020-09-19 10:00:00 SELI1
13337000 LOCHSA RIVER NR LOWELL ID   1.89 375 35,100 2020-09-19 10:00:00 LOCI1
13337099 CLEAR CK AT KOOSKIA NATIONAL FISH HATCHERY   12.16 17.5   2020-09-19 09:45:00  
13338500 SF CLEARWATER RIVER AT STITES ID 8 2.93 Eqp 17,500 2020-09-18 11:00:00 STII1
13338950 LAWYER CREEK AT KAMIAH ID   62.62

 

  2020-09-19 10:45:00  
13339500 LOLO CREEK NR GREER ID   7.87 33.6 6,810 2020-09-19 10:30:00  
13340000 CLEARWATER RIVER AT OROFINO ID 17 2.50 1,330 87,300 2020-09-19 10:15:00 ORFI1
13340600 NF CLEARWATER RIVER NR CANYON RANGER STATION ID   5.59 714 37,500 2020-09-19 10:45:00  
13341050 CLEARWATER RIVER NR PECK ID   5.12 5,840 127,000 2020-09-19 10:30:00 PEKI1
13341140 BIG CANYON CREEK NR PECK ID   3.43 7.53   2020-09-19 09:45:00  
13341570 POTLATCH RIVER BEL LITTLE POTLATCH CR NR SPALDING   4.18 5.00 19,100 2020-09-19 10:00:00 PRII1
13342450 LAPWAI CREEK NR LAPWAI, ID   2.44 13.7 5,010 2020-09-19 10:30:00 LAPI1
13342500 CLEARWATER RIVER AT SPALDING ID 18 4.26 6,160 177,000 2020-09-19 10:00:00 SPDI1
13345000 PALOUSE RIVER NR POTLATCH, ID 15 4.86 2.91 14,600 2020-09-19 10:45:00 PLOI1
13346800 PARADISE CR AT UNIVERSITY OF IDAHO AT MOSCOW ID 9.2 5.21 12.1 970 2020-09-19 10:45:00 PACI1
4354421121621 Camas Creek near Rays Lake   1.99

 

  2020-08-06 10:01:00  
4355501121634 Camas Creek near Toomey Pond   6.24 3.29   2020-08-06 11:00:00  
4356251121645 Camas Creek near Moose Pond   6.14

 

  2020-08-06 12:46:00